createdAt,value
2024-03-26T00:00:22.195Z,78.857143
2024-03-26T00:05:22.234Z,78.863636
2024-03-26T00:10:22.293Z,78.631579
2024-03-26T00:15:22.388Z,79.681818
2024-03-26T00:20:23.053Z,80.000000
2024-03-26T00:25:22.347Z,79.473684
2024-03-26T00:30:22.185Z,78.375000
2024-03-26T00:35:34.339Z,78.000000
2024-03-26T00:40:22.282Z,77.473684
2024-03-26T00:45:22.306Z,77.857143
2024-03-26T00:50:22.428Z,78.190476
2024-03-26T00:55:22.365Z,79.350000
2024-03-26T01:00:22.145Z,79.913043
2024-03-26T01:05:22.256Z,79.000000
2024-03-26T01:10:22.257Z,79.619048
2024-03-26T01:15:34.371Z,78.608696
2024-03-26T01:20:22.326Z,78.944444
2024-03-26T01:25:34.347Z,78.850000
2024-03-26T01:30:22.332Z,78.190476
2024-03-26T01:35:22.237Z,78.500000
2024-03-26T01:40:22.344Z,79.217391
2024-03-26T01:45:22.318Z,80.050000
2024-03-26T01:50:22.753Z,80.409091
2024-03-26T01:55:22.312Z,79.619048
2024-03-26T02:00:22.331Z,79.750000
2024-03-26T02:05:34.317Z,80.478261
2024-03-26T02:10:22.258Z,80.150000
2024-03-26T02:15:34.374Z,80.210526
2024-03-26T02:20:22.307Z,81.000000
2024-03-26T02:25:22.386Z,80.428571
2024-03-26T02:30:22.364Z,80.000000
2024-03-26T02:35:22.476Z,80.000000
2024-03-26T02:40:34.419Z,79.863636
2024-03-26T02:45:46.454Z,79.000000
2024-03-26T02:50:34.485Z,79.000000
2024-03-26T02:55:22.390Z,79.894737
2024-03-26T03:00:22.411Z,79.826087
2024-03-26T03:05:22.464Z,80.000000
2024-03-26T03:10:22.425Z,79.523810
2024-03-26T03:15:22.335Z,79.000000
2024-03-26T03:20:22.376Z,79.000000
2024-03-26T03:25:22.725Z,79.800000
2024-03-26T03:30:22.398Z,80.000000
2024-03-26T03:35:22.441Z,79.956522
2024-03-26T03:40:22.399Z,79.304348
2024-03-26T03:45:22.476Z,79.000000
2024-03-26T03:50:22.312Z,79.000000
2024-03-26T03:55:34.416Z,79.000000
2024-03-26T04:00:34.560Z,79.714286
2024-03-26T04:05:34.453Z,79.000000
2024-03-26T04:10:22.459Z,79.000000
2024-03-26T04:15:22.476Z,79.000000
2024-03-26T04:20:34.418Z,79.000000
2024-03-26T04:25:22.823Z,79.900000
2024-03-26T04:30:46.546Z,80.000000
2024-03-26T04:35:34.808Z,79.476190
2024-03-26T04:40:22.453Z,78.956522
2024-03-26T04:45:34.388Z,78.000000
2024-03-26T04:50:22.341Z,77.090909
2024-03-26T04:55:22.577Z,76.571429
2024-03-26T05:00:22.416Z,75.952381
2024-03-26T05:05:22.478Z,75.041667
2024-03-26T05:10:22.471Z,74.000000
2024-03-26T05:15:22.526Z,74.000000
2024-03-26T05:20:46.506Z,74.000000
2024-03-26T05:25:22.375Z,73.944444
2024-03-26T05:30:22.813Z,73.590909
2024-03-26T05:35:22.450Z,72.909091
2024-03-26T05:40:22.471Z,72.047619
2024-03-26T05:45:22.498Z,70.619048
2024-03-26T05:50:22.524Z,70.952381
2024-03-26T05:55:22.464Z,71.555556
2024-03-26T06:00:22.503Z,72.333333
2024-03-26T06:05:22.432Z,71.700000
2024-03-26T06:10:22.463Z,70.857143
2024-03-26T06:15:34.390Z,69.000000
2024-03-26T06:20:46.458Z,68.315789
2024-03-26T06:25:22.329Z,68.235294
2024-03-26T06:30:22.774Z,66.652174
2024-03-26T06:35:22.540Z,65.941176
2024-03-26T06:40:22.505Z,65.260870
2024-03-26T06:45:22.491Z,63.350000
2024-03-26T06:50:22.357Z,63.190476
2024-03-26T06:55:22.422Z,61.470588
2024-03-26T07:00:46.513Z,60.739130
2024-03-26T07:05:22.456Z,61.052632
2024-03-26T07:10:22.949Z,58.869565
2024-03-26T07:15:22.607Z,57.473684
2024-03-26T07:20:22.413Z,57.545455
2024-03-26T07:25:22.409Z,55.823529
2024-03-26T07:30:22.493Z,55.227273
2024-03-26T07:35:22.462Z,53.263158
2024-03-26T07:40:22.586Z,52.277778
2024-03-26T07:45:22.407Z,51.736842
2024-03-26T07:50:22.446Z,51.473684
2024-03-26T07:55:34.523Z,53.000000
2024-03-26T08:00:22.429Z,52.421053
2024-03-26T08:05:22.608Z,51.210526
2024-03-26T08:10:22.483Z,50.375000
2024-03-26T08:15:22.481Z,52.050000
2024-03-26T08:20:22.453Z,53.450000
2024-03-26T08:25:22.363Z,53.523810
2024-03-26T08:30:34.653Z,48.619048
2024-03-26T08:35:22.916Z,45.333333
2024-03-26T08:40:22.448Z,41.772727
2024-03-26T08:45:22.440Z,43.625000
2024-03-26T08:50:22.457Z,43.523810
2024-03-26T08:55:46.426Z,45.869565
2024-03-26T09:00:22.501Z,45.523810
2024-03-26T09:05:22.527Z,44.545455
2024-03-26T09:10:22.437Z,43.666667
2024-03-26T09:15:34.398Z,43.200000
2024-03-26T09:20:22.513Z,43.055556
2024-03-26T09:25:22.426Z,41.434783
2024-03-26T09:30:22.505Z,40.833333
2024-03-26T09:35:22.836Z,42.666667
2024-03-26T09:40:22.448Z,40.904762
2024-03-26T09:45:22.526Z,41.727273
2024-03-26T09:50:22.405Z,42.409091
2024-03-26T09:55:22.488Z,40.240000
2024-03-26T10:00:22.458Z,38.333333
2024-03-26T10:05:34.447Z,36.571429
2024-03-26T10:10:34.433Z,46.789474
2024-03-26T10:15:22.351Z,47.666667
2024-03-26T10:20:22.452Z,49.000000
2024-03-26T10:25:22.433Z,50.400000
2024-03-26T10:30:58.481Z,49.173913
2024-03-26T10:35:22.353Z,48.684211
2024-03-26T10:40:22.407Z,49.142857
2024-03-26T10:45:44.352Z,50.647059
2024-03-26T10:50:34.541Z,49.380952
2024-03-26T10:55:22.432Z,49.875000
2024-03-26T11:00:22.333Z,48.454545
2024-03-26T11:05:22.367Z,47.952381
2024-03-26T11:10:22.896Z,48.913043
2024-03-26T11:15:34.499Z,49.400000
2024-03-26T11:20:34.427Z,57.105263
2024-03-26T11:25:22.539Z,64.950000
2024-03-26T11:30:34.503Z,56.142857
2024-03-26T11:35:22.332Z,55.400000
2024-03-26T11:40:22.337Z,53.000000
2024-03-26T11:45:22.401Z,52.608696
2024-03-26T11:50:22.387Z,53.250000
2024-03-26T11:55:22.426Z,51.826087
2024-03-26T12:00:22.361Z,53.904762
2024-03-26T12:05:22.359Z,56.250000
2024-03-26T12:10:22.440Z,57.650000
2024-03-26T12:15:22.444Z,61.857143
2024-03-26T12:20:22.565Z,64.375000
2024-03-26T12:25:22.415Z,61.210526
2024-03-26T12:30:22.462Z,58.360000
2024-03-26T12:35:22.396Z,63.695652
2024-03-26T12:40:58.743Z,69.684211
2024-03-26T12:45:22.405Z,68.473684
2024-03-26T12:50:22.440Z,66.500000
2024-03-26T12:55:22.370Z,61.565217
2024-03-26T13:00:22.355Z,60.500000
2024-03-26T13:05:34.528Z,61.727273
2024-03-26T13:10:22.783Z,63.136364
2024-03-26T13:15:22.401Z,63.227273
2024-03-26T13:20:22.483Z,65.227273
2024-03-26T13:25:22.260Z,64.391304
2024-03-26T13:30:30.223Z,63.066667
2024-03-26T13:35:22.580Z,62.333333
2024-03-26T13:40:40.935Z,59.916667
2024-03-26T13:45:22.572Z,59.210526
2024-03-26T13:50:22.391Z,60.416667
2024-03-26T13:55:22.476Z,62.619048
2024-03-26T14:00:22.254Z,63.391304
2024-03-26T14:05:22.357Z,62.761905
2024-03-26T14:10:22.465Z,65.684211
2024-03-26T14:15:22.830Z,64.818182
2024-03-26T14:20:22.418Z,65.619048
2024-03-26T14:25:22.407Z,65.476190
2024-03-26T14:30:34.392Z,63.571429
2024-03-26T14:35:22.302Z,64.652174
2024-03-26T14:40:22.361Z,65.714286
2024-03-26T14:45:22.653Z,66.350000
2024-03-26T14:50:22.331Z,65.157895
2024-03-26T14:55:22.308Z,64.842105
2024-03-26T15:00:22.288Z,65.238095
2024-03-26T15:05:34.516Z,66.571429
2024-03-26T15:10:22.326Z,68.285714
2024-03-26T15:15:46.361Z,69.142857
2024-03-26T15:20:22.258Z,68.684211
2024-03-26T15:25:34.367Z,70.833333
2024-03-26T15:30:46.296Z,71.450000
2024-03-26T15:35:22.527Z,71.450000
2024-03-26T15:40:22.470Z,73.055556
2024-03-26T15:45:22.678Z,74.208333
2024-03-26T15:50:22.386Z,73.000000
2024-03-26T15:55:22.404Z,70.888889
2024-03-26T16:00:22.504Z,71.888889
2024-03-26T16:05:22.459Z,71.055556
2024-03-26T16:10:35.703Z,71.681818
2024-03-26T16:15:22.303Z,69.363636
2024-03-26T16:20:22.353Z,68.545455
2024-03-26T16:25:22.376Z,68.272727
2024-03-26T16:30:34.429Z,68.761905
2024-03-26T16:35:22.430Z,69.055556
2024-03-26T16:40:22.402Z,68.956522
2024-03-26T16:45:22.324Z,68.826087
2024-03-26T16:50:34.326Z,70.478261
2024-03-26T16:55:22.292Z,71.250000
2024-03-26T17:00:22.321Z,72.727273
2024-03-26T17:05:34.476Z,72.400000
2024-03-26T17:10:22.502Z,72.050000
2024-03-26T17:15:22.479Z,70.500000
2024-03-26T17:20:22.318Z,70.176471
2024-03-26T17:25:34.410Z,70.150000
2024-03-26T17:30:46.687Z,74.450000
2024-03-26T17:35:22.371Z,73.000000
2024-03-26T17:40:22.429Z,73.520000
2024-03-26T17:45:22.520Z,73.458333
2024-03-26T17:50:22.728Z,71.894737
2024-03-26T17:55:22.369Z,70.190476
2024-03-26T18:00:22.453Z,70.545455
2024-03-26T18:05:22.601Z,69.750000
2024-03-26T18:10:22.413Z,69.526316
2024-03-26T18:15:23.997Z,70.000000
2024-03-26T18:20:22.348Z,69.045455
2024-03-26T18:25:22.296Z,68.318182
2024-03-26T18:30:22.377Z,69.352941
2024-03-26T18:35:22.385Z,70.590909
2024-03-26T18:40:22.447Z,71.947368
2024-03-26T18:45:22.400Z,71.681818
2024-03-26T18:50:22.686Z,72.500000
2024-03-26T18:55:22.359Z,74.100000
2024-03-26T19:00:22.379Z,74.238095
2024-03-26T19:05:22.421Z,74.842105
2024-03-26T19:10:22.443Z,75.000000
2024-03-26T19:15:22.370Z,75.526316
2024-03-26T19:20:22.918Z,76.000000
2024-03-26T19:25:34.571Z,76.000000
2024-03-26T19:30:22.382Z,76.000000
2024-03-26T19:35:22.441Z,76.789474
2024-03-26T19:40:22.400Z,76.588235
2024-03-26T19:45:22.495Z,76.952381
2024-03-26T19:50:22.495Z,76.750000
2024-03-26T19:55:22.358Z,75.904762
2024-03-26T20:00:22.408Z,75.523810
2024-03-26T20:05:22.424Z,76.181818
2024-03-26T20:10:46.616Z,74.947368
2024-03-26T20:15:22.532Z,74.052632
2024-03-26T20:20:22.490Z,74.312500
2024-03-26T20:25:22.393Z,77.272727
2024-03-26T20:30:22.366Z,79.050000
2024-03-26T20:35:22.418Z,80.400000
2024-03-26T20:40:22.424Z,81.200000
2024-03-26T20:45:22.625Z,81.222222
2024-03-26T20:50:34.441Z,81.000000
2024-03-26T20:55:22.773Z,81.000000
2024-03-26T21:00:22.402Z,81.150000
2024-03-26T21:05:22.436Z,81.900000
2024-03-26T21:10:22.432Z,82.000000
2024-03-26T21:15:28.811Z,82.136364
2024-03-26T21:20:22.487Z,83.000000
2024-03-26T21:25:34.705Z,83.608696
2024-03-26T21:30:22.323Z,84.142857
2024-03-26T21:35:22.434Z,84.260870
2024-03-26T21:40:22.404Z,84.750000
2024-03-26T21:45:22.486Z,85.000000
2024-03-26T21:50:22.430Z,86.105263
2024-03-26T21:55:22.873Z,86.863636
2024-03-26T22:00:22.399Z,87.043478
2024-03-26T22:05:34.491Z,87.545455
2024-03-26T22:10:22.415Z,88.952381
2024-03-26T22:15:22.504Z,90.000000
2024-03-26T22:20:22.673Z,90.160000
2024-03-26T22:25:22.871Z,90.235294
2024-03-26T22:30:34.467Z,90.111111
2024-03-26T22:35:22.351Z,89.235294
2024-03-26T22:40:22.761Z,89.761905
2024-03-26T22:45:22.463Z,90.473684
2024-03-26T22:50:22.430Z,91.000000
2024-03-26T22:55:34.421Z,91.000000
2024-03-26T23:00:34.902Z,91.611111
2024-03-26T23:05:34.450Z,92.000000
2024-03-26T23:10:22.396Z,92.157895
2024-03-26T23:15:22.481Z,92.833333
2024-03-26T23:20:22.426Z,92.136364
2024-03-26T23:25:22.480Z,92.000000
2024-03-26T23:30:46.437Z,92.000000
2024-03-26T23:35:22.334Z,92.000000
2024-03-26T23:40:22.392Z,92.000000
2024-03-26T23:45:34.474Z,92.000000
2024-03-26T23:50:22.463Z,92.000000
2024-03-26T23:55:22.546Z,91.869565
